createdAt,value
2022-10-24T00:00:25.512Z,14.70
2022-10-24T00:10:50.582Z,13.80
2022-10-24T00:20:54.728Z,15.70
2022-10-24T00:30:58.668Z,11.20
2022-10-24T00:41:02.533Z,12.40
2022-10-24T00:51:17.347Z,15.20
2022-10-24T01:01:21.247Z,11.10
2022-10-24T01:11:34.290Z,13.80
2022-10-24T01:21:46.651Z,8.90
2022-10-24T01:32:17.237Z,15.70
2022-10-24T01:42:23.439Z,10.70
2022-10-24T01:52:32.256Z,10.90
2022-10-24T02:02:49.425Z,10.50
2022-10-24T02:13:00.469Z,11.90
2022-10-24T02:23:27.647Z,10.80
2022-10-24T02:33:32.969Z,11.10
2022-10-24T02:43:39.183Z,10.90
2022-10-24T02:53:43.063Z,8.80
2022-10-24T03:03:47.239Z,10.20
2022-10-24T03:13:51.641Z,10.80
2022-10-24T03:23:55.342Z,7.80
2022-10-24T03:33:59.767Z,7.80
2022-10-24T03:44:03.566Z,6.40
2022-10-24T03:54:07.294Z,12.60
2022-10-24T04:04:10.887Z,18.70
2022-10-24T04:14:15.071Z,14.00
2022-10-24T04:24:18.722Z,14.90
2022-10-24T04:34:22.597Z,13.10
2022-10-24T04:44:26.067Z,11.70
2022-10-24T04:54:29.618Z,10.40
2022-10-24T05:04:33.571Z,8.40
2022-10-24T05:14:37.364Z,7.50
2022-10-24T05:24:41.564Z,9.90
2022-10-24T05:34:45.401Z,15.80
2022-10-24T05:44:49.568Z,13.20
2022-10-24T05:55:06.698Z,8.60
2022-10-24T06:05:12.604Z,12.70
2022-10-24T06:15:16.248Z,19.80
2022-10-24T06:25:20.509Z,17.50
2022-10-24T06:35:24.178Z,20.00
2022-10-24T06:45:28.085Z,15.90
2022-10-24T06:55:31.905Z,11.60
2022-10-24T07:05:37.413Z,17.00
2022-10-24T07:15:41.581Z,43.30
2022-10-24T07:25:45.826Z,19.80
2022-10-24T07:35:49.910Z,13.50
2022-10-24T07:45:54.141Z,7.80
2022-10-24T07:56:00.439Z,6.00
2022-10-24T08:06:17.118Z,9.00
2022-10-24T08:16:23.132Z,5.80
2022-10-24T08:26:27.820Z,6.20
2022-10-24T08:36:37.498Z,5.40
2022-10-24T08:47:19.713Z,4.90
2022-10-24T08:57:29.563Z,6.40
2022-10-24T09:07:33.869Z,5.80
2022-10-24T09:17:38.665Z,7.20
2022-10-24T09:27:44.271Z,6.20
2022-10-24T09:37:55.906Z,7.30
2022-10-24T09:48:24.687Z,5.80
2022-10-24T09:58:36.204Z,9.40
2022-10-24T10:08:41.575Z,6.70
2022-10-24T10:18:47.510Z,5.20
2022-10-24T10:29:21.252Z,6.40
2022-10-24T10:39:57.868Z,7.00
2022-10-24T10:50:03.508Z,8.60
2022-10-24T11:00:18.720Z,8.70
2022-10-24T11:10:28.334Z,4.90
2022-10-24T11:20:38.340Z,7.40
2022-10-24T11:30:56.534Z,8.90
2022-10-24T11:41:20.553Z,8.00
2022-10-24T11:51:39.575Z,7.90
2022-10-24T12:01:52.329Z,8.20
2022-10-24T12:12:19.021Z,7.50
2022-10-24T12:22:30.504Z,9.20
2022-10-24T12:32:41.007Z,6.80
2022-10-24T12:42:44.942Z,10.20
2022-10-24T12:52:50.475Z,12.20
2022-10-24T13:03:08.662Z,8.40
2022-10-24T13:13:44.157Z,7.80
2022-10-24T13:23:49.769Z,5.10
2022-10-24T13:34:07.341Z,7.50
2022-10-24T13:44:45.911Z,11.70
2022-10-24T13:54:56.629Z,9.10
2022-10-24T14:05:02.804Z,7.60
2022-10-24T14:15:20.654Z,7.50
2022-10-24T14:35:37.554Z,10.30
2022-10-24T14:45:41.162Z,6.70
2022-10-24T14:55:51.507Z,13.40
2022-10-24T15:06:10.028Z,67.60
2022-10-24T15:16:29.011Z,15.80
2022-10-24T15:26:41.065Z,13.70
2022-10-24T15:36:47.735Z,16.30
2022-10-24T15:46:51.558Z,21.90
2022-10-24T15:56:56.239Z,38.00
2022-10-24T16:07:00.869Z,26.20
2022-10-24T16:17:04.960Z,28.10
2022-10-24T16:27:09.699Z,17.80
2022-10-24T16:37:13.361Z,26.40
2022-10-24T16:47:18.354Z,32.10
2022-10-24T17:07:28.762Z,43.30
2022-10-24T17:17:35.348Z,36.00
2022-10-24T17:27:39.962Z,24.40
2022-10-24T17:37:47.836Z,53.90
2022-10-24T17:47:53.963Z,29.20
2022-10-24T17:57:59.264Z,43.40
2022-10-24T18:08:07.119Z,47.20
2022-10-24T18:18:12.784Z,40.00
2022-10-24T18:28:17.221Z,41.20
2022-10-24T18:38:22.297Z,30.50
2022-10-24T18:48:30.402Z,34.30
2022-10-24T18:58:36.566Z,50.50
2022-10-24T19:08:41.053Z,82.00
2022-10-24T19:18:55.096Z,40.00
2022-10-24T19:29:03.533Z,42.90
2022-10-24T19:39:10.711Z,46.90
2022-10-24T19:49:15.522Z,41.90
2022-10-24T19:59:22.295Z,68.90
2022-10-24T20:09:27.125Z,39.30
2022-10-24T20:19:32.336Z,46.20
2022-10-24T20:29:37.352Z,44.50
2022-10-24T20:39:41.711Z,42.20
2022-10-24T20:49:45.378Z,43.00
2022-10-24T20:59:49.859Z,40.30
2022-10-24T21:09:57.825Z,44.30
2022-10-24T21:20:03.228Z,39.40
2022-10-24T21:30:12.156Z,49.20
2022-10-24T21:40:18.746Z,84.20
2022-10-24T21:50:22.619Z,42.80
2022-10-24T22:00:26.423Z,59.10
2022-10-24T22:10:30.158Z,49.70
2022-10-24T22:20:35.167Z,38.70
2022-10-24T22:30:40.515Z,39.60
2022-10-24T22:40:44.379Z,37.30
2022-10-24T22:50:54.657Z,36.20
2022-10-24T23:01:23.382Z,36.50
2022-10-24T23:11:27.506Z,29.20
2022-10-24T23:21:38.407Z,31.10
2022-10-24T23:31:42.330Z,29.20
2022-10-24T23:41:46.230Z,26.90
2022-10-24T23:52:12.416Z,26.30
